Time;durP1;ratioP1;P1;durP2;ratioP2;P2;SDS_P1;SDS_P2;PMS_P1;PMS_P2;Temp;Humidity;BMP_temperature;BMP_pressure;BME280_temperature;BME280_humidity;BME280_pressure;Samples;Min_cycle;Max_cycle;Signal;HPM_P1;HPM_P2
2023/01/30 00:01:14;;;;;;;23.08;11.55;;;;;;;-0.13;77.59;100654.44;6090792;23;20390;-84
2023/01/30 00:03:41;;;;;;;23.33;10.43;;;;;;;-0.15;77.58;100644.06;6090766;23;20025;-84
2023/01/30 00:06:08;;;;;;;24.30;11.05;;;;;;;-0.14;77.69;100650.97;6091073;23;20438;-84
2023/01/30 00:08:34;;;;;;;22.58;11.27;;;;;;;-0.18;77.85;100645.88;6116303;23;20021;-84
2023/01/30 00:11:06;;;;;;;25.55;11.50;;;;;;;-0.12;77.74;100654.41;6092022;23;20100;-84
2023/01/30 00:13:33;;;;;;;26.45;12.57;;;;;;;-0.09;77.59;100669.94;6085160;23;20375;-84
2023/01/30 00:16:00;;;;;;;22.95;10.98;;;;;;;-0.04;77.69;100669.81;6115699;23;20447;-85
2023/01/30 00:18:27;;;;;;;25.42;11.25;;;;;;;0.03;77.38;100667.88;6115500;23;20018;-85
2023/01/30 00:20:55;;;;;;;27.55;12.00;;;;;;;-0.02;78.07;100681.06;6112057;23;20080;-84
2023/01/30 00:23:22;;;;;;;28.65;12.68;;;;;;;-0.03;78.13;100688.03;6114841;23;20018;-84
2023/01/30 00:25:49;;;;;;;26.45;11.98;;;;;;;0.16;76.91;100684.88;6090192;23;20434;-84
2023/01/30 00:28:16;;;;;;;27.92;13.55;;;;;;;0.24;76.65;100680.25;6091283;23;20010;-84
2023/01/30 00:30:42;;;;;;;26.73;11.32;;;;;;;0.32;76.28;100682.59;6115761;23;20026;-84
2023/01/30 00:33:09;;;;;;;30.05;13.23;;;;;;;0.35;76.45;100682.50;6067020;23;20057;-84
2023/01/30 00:35:36;;;;;;;24.92;12.00;;;;;;;0.38;76.19;100680.66;6091926;23;20455;-84
2023/01/30 00:38:03;;;;;;;28.10;12.07;;;;;;;0.39;76.35;100694.56;6042821;23;20022;-83
2023/01/30 00:40:29;;;;;;;24.92;11.82;;;;;;;0.42;76.05;100690.09;6115343;23;20112;-84
2023/01/30 00:48:28;;;;;;;27.88;12.45;;;;;;;0.49;76.63;100669.00;6042784;23;20454;-83
2023/01/30 00:50:55;;;;;;;31.25;12.10;;;;;;;0.53;75.86;100654.91;6090254;23;20113;-84
2023/01/30 00:53:22;;;;;;;24.10;11.60;;;;;;;0.58;75.88;100652.97;6115958;23;20725;-84
2023/01/30 00:55:53;;;;;;;30.15;11.98;;;;;;;0.62;75.90;100657.22;6091487;23;20470;-84
2023/01/30 00:58:20;;;;;;;30.70;12.32;;;;;;;0.67;75.69;100662.28;6065986;23;20369;-83
2023/01/30 01:00:48;;;;;;;26.40;11.70;;;;;;;0.70;75.38;100656.94;6090710;23;20024;-83
2023/01/30 01:03:15;;;;;;;28.50;12.88;;;;;;;0.69;75.11;100647.38;6042942;23;20025;-83
2023/01/30 01:05:42;;;;;;;30.02;12.57;;;;;;;0.73;75.48;100642.00;6115803;23;20026;-84
2023/01/30 01:08:09;;;;;;;29.70;12.82;;;;;;;0.77;74.99;100650.59;6114549;23;20029;-83
2023/01/30 01:10:36;;;;;;;25.58;12.18;;;;;;;0.78;75.21;100661.00;6112680;23;20072;-83
2023/01/30 01:13:05;;;;;;;29.63;12.23;;;;;;;0.79;75.45;100640.94;6091904;23;20077;-83
2023/01/30 01:15:32;;;;;;;27.23;12.00;;;;;;;0.82;75.19;100646.06;6091233;23;20026;-83
2023/01/30 01:17:59;;;;;;;27.80;12.50;;;;;;;0.85;75.11;100651.19;6066001;23;20022;-84
2023/01/30 01:20:25;;;;;;;25.23;11.88;;;;;;;0.86;74.74;100626.72;6066963;23;20057;-83
2023/01/30 01:22:56;;;;;;;23.40;11.25;;;;;;;0.88;74.89;100624.94;6067160;23;20018;-83
2023/01/30 01:25:23;;;;;;;22.15;11.05;;;;;;;0.90;74.69;100615.28;6089766;23;20529;-83
2023/01/30 01:27:50;;;;;;;28.23;12.23;;;;;;;0.91;74.88;100624.81;6089799;23;20053;-83
2023/01/30 01:30:16;;;;;;;26.48;11.45;;;;;;;0.88;74.99;100618.84;6090986;23;20116;-83
2023/01/30 01:32:44;;;;;;;24.85;11.05;;;;;;;0.86;75.09;100611.91;6067708;23;20097;-84
2023/01/30 01:35:10;;;;;;;27.92;11.57;;;;;;;0.91;74.80;100600.44;6089977;23;20022;-84
2023/01/30 01:37:37;;;;;;;25.52;11.10;;;;;;;0.94;74.87;100605.53;6066024;23;20029;-83
2023/01/30 01:42:51;;;;;;;23.02;10.00;;;;;;;0.95;74.45;100586.34;6000378;23;20036;-83
2023/01/30 01:45:23;;;;;;;24.88;10.88;;;;;;;0.94;74.85;100595.06;6066523;23;20072;-83
2023/01/30 01:48:01;;;;;;;25.35;10.73;;;;;;;0.93;74.67;100594.22;6064563;23;20026;-84
2023/01/30 01:50:52;;;;;;;21.23;10.63;;;;;;;0.91;74.90;100596.03;6067046;23;20022;-84
2023/01/30 01:53:20;;;;;;;28.33;10.85;;;;;;;0.93;75.14;100575.94;5978479;23;20018;-83
2023/01/30 01:55:49;;;;;;;23.55;10.98;;;;;;;0.98;74.82;100565.31;6089898;23;20332;-83
2023/01/30 01:58:22;;;;;;;22.73;10.27;;;;;;;0.99;74.89;100567.88;6041650;23;20324;-83
2023/01/30 02:00:51;;;;;;;22.08;9.90;;;;;;;1.01;74.80;100566.03;6042031;23;20033;-83
2023/01/30 02:03:23;;;;;;;22.38;10.23;;;;;;;1.01;74.66;100576.50;6088490;23;20026;-83
2023/01/30 02:05:52;;;;;;;28.50;10.27;;;;;;;1.04;74.38;100563.31;6042589;23;20025;-83
2023/01/30 02:08:23;;;;;;;22.80;10.57;;;;;;;1.03;74.48;100551.13;6114110;23;20336;-83
2023/01/30 02:10:56;;;;;;;19.75;9.60;;;;;;;1.04;74.61;100538.91;6065786;23;20022;-83
2023/01/30 02:13:24;;;;;;;20.15;9.18;;;;;;;1.06;74.19;100544.94;6087489;23;20018;-83
2023/01/30 02:15:54;;;;;;;22.45;9.57;;;;;;;1.07;74.14;100539.66;6042807;23;20991;-83
2023/01/30 02:18:21;;;;;;;23.50;10.57;;;;;;;1.03;74.19;100543.28;6114882;23;20079;-83
2023/01/30 02:21:13;;;;;;;18.67;8.82;;;;;;;1.02;73.96;100541.59;6088394;23;20022;-84
2023/01/30 02:24:06;;;;;;;18.55;9.40;;;;;;;1.03;74.11;100550.28;5979949;23;20128;-83
2023/01/30 02:26:40;;;;;;;22.97;10.57;;;;;;;1.06;73.96;100539.72;5929595;23;20472;-83
2023/01/30 02:29:34;;;;;;;20.25;9.18;;;;;;;1.02;73.81;100531.16;6007861;23;20411;-84
2023/01/30 02:32:24;;;;;;;21.92;9.27;;;;;;;1.07;74.02;100529.19;5985547;23;20022;-83
2023/01/30 02:35:17;;;;;;;28.83;12.23;;;;;;;0.98;74.09;100528.69;5980248;23;20023;-84
2023/01/30 02:37:59;;;;;;;29.02;10.85;;;;;;;1.03;74.00;100522.38;5961499;23;20037;-83
2023/01/30 02:40:49;;;;;;;24.40;10.57;;;;;;;1.04;73.69;100499.69;5981158;23;20121;-83
2023/01/30 02:43:25;;;;;;;20.98;9.82;;;;;;;1.03;73.83;100490.16;5958478;23;20091;-83
2023/01/30 02:45:56;;;;;;;22.67;10.02;;;;;;;1.00;73.90;100490.28;6006826;23;20467;-83
2023/01/30 02:48:27;;;;;;;24.92;9.88;;;;;;;1.05;73.72;100480.47;6006594;23;20030;-84
2023/01/30 02:51:06;;;;;;;23.45;9.90;;;;;;;1.03;73.80;100477.91;5983170;23;20047;-84
2023/01/30 02:53:33;;;;;;;22.30;10.40;;;;;;;1.06;73.60;100482.19;6005970;23;20114;-84
2023/01/30 02:56:03;;;;;;;25.25;10.30;;;;;;;1.07;73.72;100463.81;6031948;23;20106;-84
2023/01/30 02:58:36;;;;;;;25.42;9.95;;;;;;;1.08;73.60;100459.44;6033534;23;20030;-83
2023/01/30 03:01:06;;;;;;;25.67;10.65;;;;;;;1.08;73.86;100462.06;6088857;23;20026;-83
2023/01/30 03:04:02;;;;;;;25.20;10.48;;;;;;;0.99;74.15;100452.81;6114204;23;20033;-83
2023/01/30 03:06:50;;;;;;;22.20;10.45;;;;;;;1.03;73.80;100462.22;5956233;23;20084;-83
2023/01/30 03:09:46;;;;;;;22.02;9.57;;;;;;;1.03;73.81;100475.28;6017039;23;20026;-83
2023/01/30 03:12:42;;;;;;;24.58;10.57;;;;;;;1.03;73.92;100483.16;5985850;23;20130;-84
2023/01/30 03:15:15;;;;;;;23.75;10.55;;;;;;;1.04;73.54;100490.09;5940319;23;20070;-84
2023/01/30 03:17:44;;;;;;;27.23;11.07;;;;;;;1.07;73.69;100491.75;6006117;23;20082;-83
2023/01/30 03:20:15;;;;;;;24.83;10.85;;;;;;;1.09;73.58;100482.03;5984852;23;20479;-83
2023/01/30 03:22:42;;;;;;;23.55;11.20;;;;;;;1.11;73.49;100492.47;5982867;23;20058;-83
2023/01/30 03:25:14;;;;;;;22.35;10.70;;;;;;;1.10;73.66;100498.63;6004663;23;20027;-83
2023/01/30 03:27:42;;;;;;;24.75;10.95;;;;;;;1.12;73.47;100500.25;6007421;23;20033;-83
2023/01/30 03:30:10;;;;;;;36.00;10.88;;;;;;;1.11;73.42;100495.06;6004768;23;20027;-83
2023/01/30 03:32:37;;;;;;;26.50;11.43;;;;;;;1.12;73.22;100488.94;5983768;23;20078;-83
2023/01/30 03:35:04;;;;;;;25.90;10.57;;;;;;;1.13;73.33;100501.09;6006388;23;20029;-83
2023/01/30 03:37:31;;;;;;;26.30;11.68;;;;;;;1.04;73.42;100495.34;6006616;23;20361;-84
2023/01/30 03:39:58;;;;;;;25.40;11.27;;;;;;;1.06;73.17;100505.72;6030161;23;20029;-84
2023/01/30 03:42:25;;;;;;;29.13;11.95;;;;;;;1.06;73.17;100503.94;6041917;23;20125;-84
2023/01/30 03:44:53;;;;;;;26.13;11.45;;;;;;;1.04;73.29;100490.09;6090272;23;20022;-83
2023/01/30 03:47:20;;;;;;;27.45;11.93;;;;;;;1.05;73.79;100501.41;6020415;23;20113;-84
2023/01/30 03:49:49;;;;;;;28.67;12.13;;;;;;;1.02;74.07;100494.53;6088893;23;20358;-83
2023/01/30 03:52:15;;;;;;;29.30;13.02;;;;;;;1.02;75.09;100507.59;6065812;23;20427;-84
2023/01/30 03:54:43;;;;;;;28.55;12.10;;;;;;;1.00;75.04;100508.56;6066032;23;20045;-84
2023/01/30 03:57:10;;;;;;;33.53;12.85;;;;;;;0.98;75.67;100521.69;6064361;23;20402;-83
2023/01/30 03:59:37;;;;;;;26.27;11.60;;;;;;;0.96;75.70;100510.44;6113684;23;20029;-83
2023/01/30 04:02:07;;;;;;;31.13;12.45;;;;;;;0.94;76.09;100527.09;6066208;23;20026;-83
2023/01/30 04:04:34;;;;;;;31.35;12.60;;;;;;;0.94;75.71;100521.88;6065577;23;20026;-83
2023/01/30 04:07:04;;;;;;;28.63;12.02;;;;;;;0.91;75.69;100520.22;6089857;23;20032;-83
2023/01/30 04:09:32;;;;;;;32.88;13.43;;;;;;;0.94;75.91;100512.28;6065760;23;20022;-83
2023/01/30 04:12:00;;;;;;;30.63;14.02;;;;;;;0.95;76.35;100515.75;6066075;23;20018;-83
2023/01/30 04:14:31;;;;;;;33.30;14.13;;;;;;;0.96;76.33;100517.44;6065407;23;20398;-83
2023/01/30 04:17:25;;;;;;;33.60;12.68;;;;;;;0.96;76.54;100518.28;6048096;23;20097;-84
2023/01/30 04:20:11;;;;;;;32.95;13.32;;;;;;;0.94;76.83;100527.97;6044121;23;20380;-83
2023/01/30 04:22:44;;;;;;;26.15;11.38;;;;;;;0.89;78.02;100511.59;6061743;23;20025;-84
2023/01/30 04:25:11;;;;;;;29.33;12.13;;;;;;;0.95;76.36;100510.50;6041358;23;20032;-83
2023/01/30 04:27:37;;;;;;;32.83;12.98;;;;;;;0.93;76.72;100499.25;6089604;23;20101;-84
2023/01/30 04:30:17;;;;;;;25.63;11.68;;;;;;;0.95;76.81;100502.66;6067181;23;20029;-84
2023/01/30 04:32:46;;;;;;;30.05;13.85;;;;;;;0.92;77.25;100487.94;6066972;23;20025;-84
2023/01/30 04:35:13;;;;;;;30.83;12.10;;;;;;;0.96;76.97;100486.06;6090904;23;20053;-83
2023/01/30 04:37:40;;;;;;;31.00;12.63;;;;;;;0.93;76.85;100486.19;6091142;23;20409;-84
2023/01/30 04:40:10;;;;;;;32.65;13.18;;;;;;;0.91;77.49;100488.84;6091769;23;20547;-84
2023/01/30 04:42:37;;;;;;;34.08;13.68;;;;;;;0.87;77.49;100461.13;6067775;23;20033;-84
2023/01/30 04:45:30;;;;;;;26.88;11.55;;;;;;;0.93;77.62;100473.09;6048551;23;20045;-83
2023/01/30 04:47:56;;;;;;;29.75;12.45;;;;;;;0.90;77.25;100471.47;6067123;23;20065;-83
2023/01/30 04:50:24;;;;;;;31.85;13.05;;;;;;;0.89;77.07;100468.88;6043648;23;20026;-83
2023/01/30 04:52:50;;;;;;;28.90;12.95;;;;;;;0.88;77.02;100465.44;6092037;23;20017;-83
2023/01/30 04:55:17;;;;;;;28.85;12.65;;;;;;;0.88;77.61;100465.44;6090599;23;20396;-83
2023/01/30 04:57:45;;;;;;;35.95;13.13;;;;;;;0.84;77.76;100475.16;6114992;23;20026;-84
2023/01/30 05:00:12;;;;;;;30.90;12.38;;;;;;;0.86;77.58;100462.88;6091707;23;20391;-83
2023/01/30 05:02:47;;;;;;;31.23;13.32;;;;;;;0.86;77.38;100455.03;6067548;23;20030;-83
2023/01/30 05:05:14;;;;;;;29.00;12.15;;;;;;;0.91;77.13;100460.06;6139573;23;20033;-83
2023/01/30 05:07:41;;;;;;;30.95;12.80;;;;;;;0.93;77.02;100463.50;6090977;23;20454;-84
2023/01/30 05:10:09;;;;;;;32.60;13.77;;;;;;;0.89;77.85;100455.81;6066185;23;20029;-84
2023/01/30 05:12:35;;;;;;;30.52;12.30;;;;;;;0.91;77.27;100446.16;6067326;23;20703;-83
2023/01/30 05:15:02;;;;;;;27.90;11.93;;;;;;;0.92;77.27;100446.13;6066968;23;20071;-84
2023/01/30 05:17:29;;;;;;;29.88;13.30;;;;;;;0.91;77.38;100448.78;6066842;23;20021;-83
2023/01/30 05:19:56;;;;;;;32.88;13.85;;;;;;;0.91;77.34;100433.94;6091146;23;20022;-84
2023/01/30 05:22:22;;;;;;;32.65;14.13;;;;;;;0.92;76.83;100419.97;6090991;23;20022;-83
2023/01/30 05:24:50;;;;;;;36.47;15.27;;;;;;;0.93;77.04;100429.50;6090537;23;20121;-84
2023/01/30 05:27:16;;;;;;;30.45;13.07;;;;;;;0.88;77.91;100409.69;6066167;23;20042;-84
2023/01/30 05:29:43;;;;;;;34.10;13.77;;;;;;;0.88;78.24;100426.22;6091707;23;20421;-83
2023/01/30 05:32:13;;;;;;;29.38;13.38;;;;;;;0.84;78.64;100420.25;6114223;23;20038;-83
2023/01/30 05:34:40;;;;;;;31.83;13.30;;;;;;;0.86;78.46;100422.81;6090027;23;20018;-84
2023/01/30 05:37:07;;;;;;;28.77;12.00;;;;;;;0.89;78.13;100420.09;6114762;23;20088;-84
2023/01/30 05:39:34;;;;;;;26.73;13.13;;;;;;;0.90;77.95;100413.09;6114721;23;20034;-83
2023/01/30 05:42:00;;;;;;;29.38;12.88;;;;;;;0.92;77.92;100425.19;6090604;23;20058;-83
2023/01/30 05:44:27;;;;;;;35.17;14.35;;;;;;;0.85;78.70;100435.03;6089525;23;20033;-83
2023/01/30 05:46:54;;;;;;;30.25;13.73;;;;;;;0.90;78.20;100420.94;6066641;23;20022;-84
2023/01/30 05:49:20;;;;;;;31.63;12.43;;;;;;;0.87;79.05;100419.28;6114581;23;20102;-84
2023/01/30 05:51:47;;;;;;;26.98;12.73;;;;;;;0.90;78.72;100419.16;6090973;23;20399;-84
2023/01/30 05:54:17;;;;;;;30.67;12.60;;;;;;;0.90;78.62;100406.09;6043603;23;20106;-85
2023/01/30 05:56:43;;;;;;;26.20;11.95;;;;;;;0.91;79.15;100412.16;6090083;23;20045;-84
2023/01/30 05:59:10;;;;;;;31.40;13.23;;;;;;;0.94;78.49;100397.22;6090600;23;20347;-85
2023/01/30 06:01:37;;;;;;;28.83;11.82;;;;;;;0.95;78.21;100416.38;6066198;23;20030;-85
2023/01/30 06:04:04;;;;;;;31.00;12.80;;;;;;;0.93;78.57;100416.44;6089971;23;20025;-85
2023/01/30 06:06:30;;;;;;;29.98;11.95;;;;;;;0.89;79.09;100412.25;6114905;23;20057;-84
2023/01/30 06:08:57;;;;;;;26.17;12.40;;;;;;;0.92;78.64;100395.59;6113867;23;20472;-85
2023/01/30 06:11:24;;;;;;;32.38;11.93;;;;;;;0.96;78.67;100410.22;6090263;23;20030;-85
2023/01/30 06:13:51;;;;;;;25.45;10.48;;;;;;;0.94;78.75;100394.63;6066473;23;20022;-85
2023/01/30 06:16:18;;;;;;;27.02;10.60;;;;;;;0.89;78.75;100407.03;6066169;23;20383;-85
2023/01/30 06:18:48;;;;;;;26.73;11.90;;;;;;;0.78;79.95;100396.09;6065594;23;20049;-85
2023/01/30 06:21:15;;;;;;;24.58;10.82;;;;;;;0.83;79.50;100388.94;6113571;23;20018;-85
2023/01/30 06:23:42;;;;;;;27.88;11.43;;;;;;;0.83;79.32;100392.41;6090136;23;20024;-85
2023/01/30 06:26:09;;;;;;;24.23;11.35;;;;;;;0.86;78.90;100405.34;6113532;23;20021;-84
2023/01/30 06:28:37;;;;;;;22.45;9.77;;;;;;;0.90;78.68;100395.63;6089724;23;20030;-83
2023/01/30 06:31:07;;;;;;;25.95;11.05;;;;;;;0.91;78.48;100392.09;6089894;23;20024;-84
2023/01/30 06:33:34;;;;;;;25.35;10.10;;;;;;;0.89;79.16;100385.22;6090558;23;20030;-84
2023/01/30 06:36:01;;;;;;;22.98;10.52;;;;;;;0.90;78.53;100384.34;6114597;23;20026;-84
2023/01/30 06:38:28;;;;;;;23.95;10.98;;;;;;;0.88;79.40;100384.38;6088703;23;20026;-84
2023/01/30 06:40:55;;;;;;;27.35;11.98;;;;;;;0.78;80.73;100393.50;6114484;23;20021;-84
2023/01/30 06:43:22;;;;;;;25.77;11.18;;;;;;;0.89;79.29;100396.56;6113837;23;20026;-83
2023/01/30 06:45:48;;;;;;;26.27;11.10;;;;;;;0.86;80.20;100394.03;6089326;23;20025;-83
2023/01/30 06:48:18;;;;;;;28.85;11.80;;;;;;;0.83;80.95;100386.31;6113434;23;20038;-82
2023/01/30 06:50:46;;;;;;;30.60;11.43;;;;;;;0.87;80.19;100398.38;6092537;23;20046;-84
2023/01/30 06:53:13;;;;;;;26.88;12.10;;;;;;;0.81;81.42;100419.50;6068934;23;20358;-83
2023/01/30 06:55:39;;;;;;;30.05;11.98;;;;;;;0.90;80.01;100410.47;6065592;23;20056;-83
2023/01/30 06:58:11;;;;;;;27.38;12.30;;;;;;;0.92;79.96;100413.88;6089639;23;20078;-83
2023/01/30 07:00:39;;;;;;;25.27;12.45;;;;;;;0.95;79.56;100412.00;6085212;23;20105;-84
2023/01/30 07:03:14;;;;;;;32.00;11.85;;;;;;;0.96;79.92;100425.91;6089578;23;20434;-83
2023/01/30 07:05:42;;;;;;;29.38;12.25;;;;;;;0.95;80.11;100422.44;6090005;23;20132;-83
2023/01/30 07:08:10;;;;;;;30.48;11.90;;;;;;;0.98;80.12;100395.34;6090570;23;20505;-84
2023/01/30 07:10:37;;;;;;;24.25;11.80;;;;;;;0.94;80.41;100405.06;6114381;23;20546;-84
2023/01/30 07:13:04;;;;;;;27.77;12.13;;;;;;;0.94;80.04;100399.84;6090411;23;20022;-84
2023/01/30 07:15:31;;;;;;;26.27;10.68;;;;;;;0.92;80.88;100377.28;6090913;23;20040;-82
2023/01/30 07:17:58;;;;;;;30.40;12.25;;;;;;;0.94;80.50;100389.38;6090573;23;20025;-84
2023/01/30 07:20:25;;;;;;;25.27;11.32;;;;;;;0.95;80.18;100380.63;6090194;23;20088;-85
2023/01/30 07:22:53;;;;;;;26.17;11.02;;;;;;;0.99;79.98;100355.19;6067310;23;20381;-84
2023/01/30 07:25:21;;;;;;;23.17;9.95;;;;;;;0.99;80.28;100374.38;6081402;23;20021;-84
2023/01/30 07:27:52;;;;;;;27.38;10.85;;;;;;;0.94;81.25;100360.63;6065505;23;20029;-84
2023/01/30 07:30:19;;;;;;;27.80;10.88;;;;;;;0.99;79.95;100357.78;6114820;23;20020;-83
2023/01/30 07:32:50;;;;;;;26.48;11.43;;;;;;;1.00;80.72;100343.81;6043540;23;20018;-83
2023/01/30 07:35:17;;;;;;;27.67;9.77;;;;;;;1.01;80.70;100340.28;6041631;23;20104;-84
2023/01/30 07:37:48;;;;;;;26.25;10.52;;;;;;;0.99;81.08;100329.91;6064056;23;20022;-84
2023/01/30 07:40:15;;;;;;;29.25;11.15;;;;;;;0.93;82.50;100327.53;6077152;23;20026;-84
2023/01/30 07:42:55;;;;;;;24.10;9.75;;;;;;;1.05;80.14;100323.56;6065633;23;20386;-83
2023/01/30 07:45:22;;;;;;;24.50;9.63;;;;;;;1.04;80.26;100325.34;6038127;23;20025;-84
2023/01/30 07:47:48;;;;;;;20.95;8.55;;;;;;;0.96;82.36;100340.47;6065200;23;20025;-85
2023/01/30 07:50:16;;;;;;;22.02;9.90;;;;;;;1.03;81.13;100351.53;6077586;23;20044;-83
2023/01/30 07:52:43;;;;;;;25.50;10.10;;;;;;;1.02;81.66;100350.69;6089667;23;20037;-84
2023/01/30 07:55:10;;;;;;;25.55;10.05;;;;;;;1.03;82.25;100370.69;6112696;23;20030;-83
2023/01/30 07:57:37;;;;;;;19.70;9.82;;;;;;;1.03;81.66;100356.78;6137371;23;20104;-83
2023/01/30 08:00:04;;;;;;;27.85;10.23;;;;;;;1.06;81.29;100348.78;6116347;23;20112;-85
2023/01/30 08:02:34;;;;;;;32.05;10.55;;;;;;;1.08;81.74;100318.22;6096970;23;20060;-83
2023/01/30 08:05:01;;;;;;;22.17;9.13;;;;;;;1.08;81.29;100323.44;6051645;23;20755;-83
2023/01/30 08:07:31;;;;;;;21.55;8.65;;;;;;;1.04;82.44;100348.88;6115577;23;20105;-83
2023/01/30 08:09:58;;;;;;;26.83;9.77;;;;;;;1.04;82.09;100330.56;6116330;23;20030;-84
2023/01/30 08:12:25;;;;;;;26.05;10.02;;;;;;;1.07;81.62;100332.22;6091807;23;20021;-83
2023/01/30 08:14:52;;;;;;;24.35;9.93;;;;;;;1.07;82.25;100325.22;6067942;23;20061;-84
2023/01/30 08:17:18;;;;;;;23.52;9.23;;;;;;;1.06;82.75;100315.63;6069607;23;20026;-84
2023/01/30 08:19:45;;;;;;;20.17;9.27;;;;;;;1.05;82.87;100336.66;6091778;23;20022;-84
2023/01/30 08:22:13;;;;;;;24.85;9.27;;;;;;;0.98;83.44;100340.41;6068666;23;20018;-83
2023/01/30 08:24:40;;;;;;;24.08;10.57;;;;;;;0.96;84.15;100335.25;6092332;23;20661;-83
2023/01/30 08:27:07;;;;;;;20.00;8.65;;;;;;;1.06;83.06;100336.56;6092336;23;20022;-83
2023/01/30 08:29:33;;;;;;;22.65;8.30;;;;;;;1.06;82.52;100326.09;6067894;23;20390;-84
2023/01/30 08:32:00;;;;;;;23.02;8.98;;;;;;;1.07;82.62;100327.81;6045177;23;20057;-84
2023/01/30 08:34:27;;;;;;;26.00;10.50;;;;;;;1.08;82.93;100337.34;6035076;23;20352;-84
2023/01/30 08:36:54;;;;;;;26.05;10.15;;;;;;;1.10;83.00;100339.06;6090851;23;20022;-84
2023/01/30 08:39:21;;;;;;;22.75;9.02;;;;;;;1.15;82.06;100351.03;6115524;23;20022;-84
2023/01/30 08:41:47;;;;;;;21.55;9.45;;;;;;;1.12;83.01;100326.75;6116015;23;20026;-84
2023/01/30 08:44:14;;;;;;;22.92;9.25;;;;;;;1.10;82.91;100310.31;6091823;23;20509;-84
2023/01/30 08:46:41;;;;;;;21.90;9.30;;;;;;;1.16;82.39;100330.97;6092154;23;20029;-83
2023/01/30 08:49:09;;;;;;;21.17;9.50;;;;;;;1.19;82.22;100330.81;6067831;23;20022;-83
2023/01/30 08:51:36;;;;;;;23.88;9.75;;;;;;;1.19;82.21;100330.81;6092288;23;20030;-84
2023/01/30 08:54:03;;;;;;;18.95;8.75;;;;;;;1.21;82.19;100319.38;6044323;23;20025;-84
2023/01/30 08:56:30;;;;;;;25.25;7.85;;;;;;;1.22;82.08;100315.88;6067787;23;20347;-83
2023/01/30 08:58:57;;;;;;;22.67;9.18;;;;;;;1.21;83.22;100319.38;6043760;23;20021;-83
2023/01/30 09:01:23;;;;;;;24.75;8.63;;;;;;;1.23;83.04;100329.78;6092135;23;20402;-83
2023/01/30 09:03:51;;;;;;;25.70;9.68;;;;;;;1.25;82.29;100343.66;6115679;23;20029;-83
2023/01/30 09:06:17;;;;;;;24.88;9.35;;;;;;;1.26;82.56;100355.81;6091244;23;20399;-83
2023/01/30 09:08:44;;;;;;;24.25;9.13;;;;;;;1.26;82.35;100353.22;6091962;23;20473;-83
2023/01/30 09:11:11;;;;;;;23.63;9.32;;;;;;;1.22;83.34;100349.88;6091761;23;20045;-83
2023/01/30 09:13:42;;;;;;;27.60;10.90;;;;;;;1.23;83.15;100342.88;6067634;23;20032;-83
2023/01/30 09:16:10;;;;;;;20.73;8.98;;;;;;;1.21;82.87;100334.25;6068063;23;20022;-83
2023/01/30 09:18:41;;;;;;;26.27;10.18;;;;;;;1.22;82.92;100330.69;6067738;23;20038;-83
2023/01/30 09:21:09;;;;;;;23.48;9.77;;;;;;;1.20;84.10;100314.25;6067547;23;20028;-84
2023/01/30 09:23:36;;;;;;;21.27;9.50;;;;;;;1.23;83.12;100309.72;6067538;23;20026;-84
2023/01/30 09:26:04;;;;;;;26.13;10.63;;;;;;;1.22;82.88;100309.75;6091438;23;20026;-83
2023/01/30 09:28:32;;;;;;;25.23;9.45;;;;;;;1.23;82.92;100314.94;6089884;23;20029;-83
2023/01/30 09:30:59;;;;;;;22.80;9.13;;;;;;;1.21;83.82;100311.53;6090338;23;20036;-84
2023/01/30 09:33:27;;;;;;;27.70;10.95;;;;;;;1.25;83.16;100293.97;6091720;23;20022;-83
2023/01/30 09:35:54;;;;;;;28.20;10.98;;;;;;;1.23;83.57;100290.56;6091453;23;20029;-83
2023/01/30 09:38:21;;;;;;;25.20;10.43;;;;;;;1.21;83.73;100298.47;6091137;23;20018;-83
2023/01/30 09:41:09;;;;;;;27.70;10.75;;;;;;;1.17;84.06;100282.94;6091122;23;20073;-83
2023/01/30 09:43:42;;;;;;;25.70;11.00;;;;;;;1.23;83.48;100280.94;6002835;23;20033;-85
2023/01/30 09:46:27;;;;;;;28.63;11.57;;;;;;;1.25;83.23;100296.59;6067927;23;20022;-84
2023/01/30 09:48:57;;;;;;;25.52;11.35;;;;;;;1.28;83.12;100297.28;6045865;23;20031;-84
2023/01/30 09:51:35;;;;;;;26.70;10.23;;;;;;;1.30;83.26;100295.47;6115013;23;20026;-83
2023/01/30 09:54:17;;;;;;;24.52;10.15;;;;;;;1.35;82.89;100283.94;6090231;23;20029;-83
2023/01/30 09:56:43;;;;;;;34.00;11.30;;;;;;;1.39;82.92;100295.97;6066908;23;20036;-83
2023/01/30 09:59:19;;;;;;;24.65;10.20;;;;;;;1.38;83.54;100297.75;6067281;23;20022;-84
2023/01/30 10:02:25;;;;;;;25.63;10.60;;;;;;;1.36;83.52;100288.25;6066694;23;20411;-83
2023/01/30 10:04:55;;;;;;;25.95;10.80;;;;;;;1.43;82.52;100297.56;5946997;23;20030;-83
2023/01/30 10:07:53;;;;;;;26.50;11.43;;;;;;;1.42;82.85;100301.06;6092339;23;20014;-84
2023/01/30 10:10:34;;;;;;;26.27;10.93;;;;;;;1.39;84.16;100295.97;6045871;23;20025;-84
2023/01/30 10:13:34;;;;;;;25.25;9.65;;;;;;;1.35;84.74;100290.03;6045284;23;20021;-84
2023/01/30 10:16:34;;;;;;;25.52;10.25;;;;;;;1.35;83.67;100302.25;6004252;23;20439;-84
2023/01/30 10:19:31;;;;;;;25.60;10.10;;;;;;;1.37;83.71;100316.97;6025884;23;20026;-84
2023/01/30 10:22:43;;;;;;;29.88;11.13;;;;;;;1.33;84.09;100325.88;5961645;23;20022;-84
2023/01/30 10:25:23;;;;;;;35.63;12.10;;;;;;;1.34;84.23;100316.25;5911690;23;20427;-83
2023/01/30 10:27:53;;;;;;;31.88;11.27;;;;;;;1.37;83.53;100309.13;5984647;23;20026;-83
2023/01/30 10:30:20;;;;;;;28.02;10.98;;;;;;;1.38;83.15;100297.75;6086544;23;20085;-83
2023/01/30 10:32:58;;;;;;;29.17;11.52;;;;;;;1.37;84.06;100287.34;6114870;23;20022;-83
2023/01/30 10:35:30;;;;;;;32.65;11.90;;;;;;;1.35;84.11;100292.66;5994661;23;20026;-84
2023/01/30 10:38:09;;;;;;;27.48;10.75;;;;;;;1.37;83.82;100311.72;5983001;23;20371;-83
2023/01/30 10:40:43;;;;;;;26.45;10.60;;;;;;;1.36;84.15;100320.50;6054842;23;20653;-84
2023/01/30 10:43:19;;;;;;;27.65;10.85;;;;;;;1.37;84.56;100324.81;6008176;23;20157;-84
2023/01/30 10:46:17;;;;;;;27.20;10.80;;;;;;;1.30;86.70;100319.00;6007215;23;20073;-83
2023/01/30 10:48:58;;;;;;;30.00;11.38;;;;;;;1.39;84.26;100317.75;5905086;23;20451;-83
2023/01/30 10:51:37;;;;;;;37.08;11.20;;;;;;;1.40;83.85;100315.97;5964110;23;20403;-83
2023/01/30 10:54:12;;;;;;;28.40;11.38;;;;;;;1.36;84.86;100317.88;6030638;23;20443;-83
2023/01/30 10:57:02;;;;;;;30.52;13.02;;;;;;;1.30;87.30;100307.69;6006915;23;20033;-83
2023/01/30 10:59:33;;;;;;;30.48;12.07;;;;;;;1.39;84.75;100309.06;5918552;23;20023;-83
2023/01/30 11:02:35;;;;;;;27.48;10.35;;;;;;;1.34;86.66;100311.88;5984177;23;20605;-84
2023/01/30 11:05:03;;;;;;;25.13;11.30;;;;;;;1.41;84.11;100310.69;5938708;23;20059;-83
2023/01/30 11:07:31;;;;;;;35.15;13.75;;;;;;;1.42;84.81;100294.06;6079907;23;20034;-83
2023/01/30 11:09:59;;;;;;;39.50;13.20;;;;;;;1.43;84.39;100290.56;6115085;23;20045;-83
2023/01/30 11:12:26;;;;;;;32.92;12.23;;;;;;;1.45;84.87;100296.56;6089751;23;20057;-83
2023/01/30 11:14:55;;;;;;;28.02;11.15;;;;;;;1.47;84.06;100286.88;6113736;23;20088;-83
2023/01/30 11:17:32;;;;;;;33.83;12.05;;;;;;;1.49;84.65;100281.56;6065659;23;20048;-83
2023/01/30 11:20:16;;;;;;;35.08;12.27;;;;;;;1.50;85.72;100278.03;6066728;23;20022;-83
2023/01/30 11:22:53;;;;;;;33.90;12.02;;;;;;;1.51;85.07;100279.75;5951966;23;20030;-83
2023/01/30 11:25:23;;;;;;;31.92;10.80;;;;;;;1.53;84.43;100262.22;6090563;23;20073;-83
2023/01/30 11:28:00;;;;;;;29.90;12.25;;;;;;;1.52;85.80;100279.66;6088900;23;20057;-83
2023/01/30 11:30:29;;;;;;;32.22;11.63;;;;;;;1.56;85.38;100264.69;5994951;23;20096;-83
2023/01/30 11:33:12;;;;;;;30.52;10.68;;;;;;;1.56;85.54;100250.75;6089749;23;20024;-83
2023/01/30 11:36:02;;;;;;;25.35;10.13;;;;;;;1.57;86.12;100240.19;6088980;23;20017;-83
2023/01/30 11:38:37;;;;;;;29.83;11.75;;;;;;;1.59;85.47;100230.53;6015296;23;20072;-83
2023/01/30 11:41:17;;;;;;;;;;;;;;;1.53;87.23;100233.44;6089012;23;20023;-84
2023/01/30 11:43:44;;;;;;;31.65;10.98;;;;;;;1.54;87.87;100231.66;6018036;23;20290;-83
2023/01/30 11:46:15;;;;;;;29.17;10.68;;;;;;;1.56;86.97;100227.22;6064312;23;20018;-83